Time;durP1;ratioP1;P1;durP2;ratioP2;P2;SDS_P1;SDS_P2;PMS_P1;PMS_P2;Temp;Humidity;BMP_temperature;BMP_pressure;BME280_temperature;BME280_humidity;BME280_pressure;Samples;Min_cycle;Max_cycle;Signal;HPM_P1;HPM_P2
2024/04/10 00:00:59;;;;;;;3.17;1.38;;;17.10;72.50;;;;;;5376815;26;20433;-78
2024/04/10 00:03:29;;;;;;;2.72;1.13;;;17.00;72.50;;;;;;5379105;26;20008;-76
2024/04/10 00:05:59;;;;;;;3.17;1.27;;;17.10;72.60;;;;;;5381097;26;20011;-78
2024/04/10 00:08:25;;;;;;;4.78;1.23;;;17.00;72.60;;;;;;5393837;26;20645;-80
2024/04/10 00:10:52;;;;;;;3.25;1.00;;;17.00;72.60;;;;;;5381798;26;20001;-78
2024/04/10 00:13:18;;;;;;;4.53;1.00;;;17.00;72.50;;;;;;5394081;26;20471;-78
2024/04/10 00:15:43;;;;;;;3.03;1.00;;;17.00;72.60;;;;;;5402158;26;20452;-77
2024/04/10 00:18:09;;;;;;;4.53;1.50;;;17.00;72.60;;;;;;5393766;26;19999;-78
2024/04/10 00:20:36;;;;;;;4.20;1.38;;;17.00;72.60;;;;;;5387775;26;20333;-78
2024/04/10 00:23:05;;;;;;;2.75;0.88;;;17.00;72.60;;;;;;5401560;26;20000;-78
2024/04/10 00:25:34;;;;;;;4.38;1.55;;;17.00;72.50;;;;;;5397698;26;20007;-78
2024/04/10 00:28:00;;;;;;;3.80;1.10;;;17.00;72.60;;;;;;5354201;26;20490;-77
2024/04/10 00:30:26;;;;;;;3.30;1.07;;;17.00;72.70;;;;;;5374197;26;20008;-77
2024/04/10 00:32:52;;;;;;;2.47;1.02;;;17.00;72.60;;;;;;5398316;26;20016;-77
2024/04/10 00:35:18;;;;;;;2.35;1.15;;;17.00;72.60;;;;;;5383396;26;20437;-78
2024/04/10 00:37:43;;;;;;;2.93;1.00;;;17.00;72.70;;;;;;5392859;26;20008;-78
2024/04/10 00:40:09;;;;;;;2.67;0.93;;;17.00;72.70;;;;;;5401472;26;20004;-78
2024/04/10 00:42:35;;;;;;;2.75;1.35;;;16.90;72.80;;;;;;5388329;26;20000;-78
2024/04/10 00:45:01;;;;;;;1.57;1.00;;;16.90;72.80;;;;;;5378116;26;20345;-78
2024/04/10 00:47:28;;;;;;;2.37;1.30;;;16.90;72.80;;;;;;5373218;26;20004;-76
2024/04/10 00:49:54;;;;;;;4.70;1.20;;;16.90;72.70;;;;;;5377720;26;20005;-78
2024/04/10 00:52:20;;;;;;;1.98;1.00;;;16.90;72.80;;;;;;5381912;26;20014;-79
2024/04/10 00:54:46;;;;;;;3.63;1.00;;;16.90;72.80;;;;;;5391683;26;20013;-78
2024/04/10 00:57:12;;;;;;;4.00;1.20;;;16.90;72.70;;;;;;5385956;26;20000;-78
2024/04/10 00:59:38;;;;;;;2.57;1.00;;;16.90;72.70;;;;;;5406759;26;19999;-78
2024/04/10 01:02:06;;;;;;;3.23;1.53;;;16.90;72.70;;;;;;5376929;26;20015;-78
2024/04/10 01:04:32;;;;;;;3.75;1.20;;;16.90;72.80;;;;;;5379904;26;20460;-77
2024/04/10 01:06:58;;;;;;;3.42;0.80;;;16.90;72.70;;;;;;5381265;26;20004;-79
2024/04/10 01:09:24;;;;;;;3.47;1.03;;;16.90;72.90;;;;;;5379886;26;20004;-78
2024/04/10 01:11:49;;;;;;;4.97;1.30;;;16.90;72.70;;;;;;5378927;26;20524;-78
2024/04/10 01:14:16;;;;;;;4.10;0.93;;;16.90;72.80;;;;;;5410294;26;20457;-78
2024/04/10 01:16:42;;;;;;;4.20;1.10;;;16.90;72.80;;;;;;5380756;26;20795;-78
2024/04/10 01:19:08;;;;;;;5.43;1.03;;;16.80;72.90;;;;;;5379496;26;20080;-78
2024/04/10 01:21:34;;;;;;;2.90;0.98;;;16.90;72.90;;;;;;5389699;26;19996;-78
2024/04/10 01:24:00;;;;;;;3.85;0.82;;;16.80;72.90;;;;;;5404115;26;20013;-77
2024/04/10 01:26:26;;;;;;;2.67;0.90;;;16.80;73.00;;;;;;5377402;26;20031;-78
2024/04/10 01:28:51;;;;;;;2.77;1.20;;;16.80;73.00;;;;;;5399435;26;20434;-78
2024/04/10 01:31:17;;;;;;;3.30;1.53;;;16.80;73.10;;;;;;5393444;26;20019;-77
2024/04/10 01:33:43;;;;;;;4.87;1.07;;;16.80;73.00;;;;;;5404166;26;20023;-78
2024/04/10 01:36:08;;;;;;;4.20;1.00;;;16.80;73.00;;;;;;5388168;26;20035;-77
2024/04/10 01:38:35;;;;;;;2.37;1.00;;;16.80;73.00;;;;;;5403633;26;20068;-78
2024/04/10 01:41:01;;;;;;;2.22;1.02;;;16.80;73.00;;;;;;5414467;26;20014;-78
2024/04/10 01:43:26;;;;;;;2.87;0.70;;;16.80;73.10;;;;;;5412666;26;20011;-77
2024/04/10 01:45:52;;;;;;;3.13;1.00;;;16.80;73.00;;;;;;5397655;26;20011;-78
2024/04/10 01:48:18;;;;;;;3.20;0.90;;;16.80;73.10;;;;;;5414716;26;20076;-78
2024/04/10 01:50:44;;;;;;;2.60;1.27;;;16.80;73.00;;;;;;5410261;26;20062;-78
2024/04/10 01:53:10;;;;;;;4.40;1.30;;;16.80;73.00;;;;;;5384344;26;20012;-78
2024/04/10 01:55:36;;;;;;;3.03;1.10;;;16.80;73.00;;;;;;5386286;26;19996;-77
2024/04/10 01:58:02;;;;;;;2.83;1.30;;;16.80;73.10;;;;;;5414685;26;20073;-78
2024/04/10 02:00:27;;;;;;;3.17;1.57;;;16.80;73.10;;;;;;5412318;26;20003;-78
2024/04/10 02:02:53;;;;;;;4.57;1.17;;;16.80;73.10;;;;;;5410627;26;20328;-77
2024/04/10 02:05:19;;;;;;;2.50;0.90;;;16.70;73.10;;;;;;5378411;26;20000;-77
2024/04/10 02:07:45;;;;;;;2.67;1.00;;;16.80;73.10;;;;;;5405853;26;20090;-78
2024/04/10 02:10:11;;;;;;;9.43;1.43;;;16.70;73.20;;;;;;5412558;26;20250;-78
2024/04/10 02:12:36;;;;;;;2.20;0.80;;;16.70;73.20;;;;;;5414256;26;20000;-78
2024/04/10 02:15:03;;;;;;;1.70;1.27;;;16.70;73.30;;;;;;5384970;26;20012;-77
2024/04/10 02:17:29;;;;;;;3.65;1.00;;;16.70;73.20;;;;;;5378416;26;20357;-78
2024/04/10 02:19:54;;;;;;;2.27;1.07;;;16.70;73.20;;;;;;5411868;26;20003;-78
2024/04/10 02:22:20;;;;;;;3.13;1.10;;;16.70;73.20;;;;;;5412522;26;19995;-78
2024/04/10 02:24:45;;;;;;;2.23;1.00;;;16.70;73.20;;;;;;5410854;26;20512;-78
2024/04/10 02:27:11;;;;;;;4.07;1.03;;;16.70;73.20;;;;;;5379405;26;20540;-78
2024/04/10 02:29:37;;;;;;;2.30;1.00;;;16.70;73.20;;;;;;5394439;26;20143;-78
2024/04/10 02:32:03;;;;;;;5.67;1.27;;;16.70;73.20;;;;;;5411724;26;20014;-78
2024/04/10 02:34:29;;;;;;;1.92;0.88;;;16.70;73.20;;;;;;5409182;26;20015;-78
2024/04/10 02:36:55;;;;;;;3.03;1.13;;;16.70;73.20;;;;;;5410414;26;19999;-78
2024/04/10 02:39:20;;;;;;;2.60;1.13;;;16.70;73.20;;;;;;5388978;26;20440;-78
2024/04/10 02:41:46;;;;;;;4.33;1.40;;;16.70;73.20;;;;;;5412428;26;19996;-78
2024/04/10 02:44:12;;;;;;;4.10;1.17;;;16.70;73.20;;;;;;5411199;26;20431;-78
2024/04/10 02:46:38;;;;;;;3.90;1.40;;;16.70;73.30;;;;;;5390307;26;20076;-78
2024/04/10 02:49:03;;;;;;;2.97;1.07;;;16.70;73.20;;;;;;5381438;26;20001;-78
2024/04/10 02:51:29;;;;;;;2.60;1.00;;;16.70;73.30;;;;;;5388333;26;20402;-79
2024/04/10 02:53:55;;;;;;;3.73;1.17;;;16.60;73.30;;;;;;5412025;26;20398;-78
2024/04/10 02:56:20;;;;;;;3.63;1.20;;;16.60;73.30;;;;;;5386475;26;19999;-78
2024/04/10 02:58:47;;;;;;;3.80;1.20;;;16.60;73.30;;;;;;5398876;26;20004;-77
2024/04/10 03:01:12;;;;;;;3.88;1.00;;;16.60;73.30;;;;;;5401055;26;20010;-78
2024/04/10 03:03:38;;;;;;;6.97;1.73;;;16.60;73.30;;;;;;5393386;26;20004;-78
2024/04/10 03:06:06;;;;;;;5.23;1.47;;;16.60;73.30;;;;;;5386999;26;20000;-78
2024/04/10 03:08:32;;;;;;;2.90;0.90;;;16.60;73.20;;;;;;5385062;26;20003;-78
2024/04/10 03:10:58;;;;;;;3.53;1.20;;;16.60;73.10;;;;;;5395695;26;20004;-79
2024/04/10 03:13:24;;;;;;;4.33;1.13;;;16.60;73.20;;;;;;5409323;26;20497;-78
2024/04/10 03:15:50;;;;;;;8.43;1.38;;;16.60;73.10;;;;;;5388062;26;20073;-78
2024/04/10 03:18:17;;;;;;;3.72;1.20;;;16.60;73.10;;;;;;5401712;26;20031;-79
2024/04/10 03:20:43;;;;;;;2.90;1.25;;;16.60;73.20;;;;;;5393460;26;20007;-78
2024/04/10 03:23:08;;;;;;;4.30;1.33;;;16.60;73.20;;;;;;5411172;26;20328;-79
2024/04/10 03:25:34;;;;;;;3.70;1.23;;;16.60;73.20;;;;;;5370749;26;20073;-78
2024/04/10 03:28:00;;;;;;;1.90;0.87;;;16.60;73.20;;;;;;5390828;26;19995;-78
2024/04/10 03:30:26;;;;;;;4.68;1.45;;;16.60;73.20;;;;;;5391090;26;19996;-78
2024/04/10 03:32:53;;;;;;;6.15;1.27;;;16.60;73.10;;;;;;5411643;26;20601;-79
2024/04/10 03:35:19;;;;;;;7.45;1.40;;;16.50;73.20;;;;;;5402263;26;20004;-78
2024/04/10 03:37:45;;;;;;;3.60;1.48;;;16.50;73.20;;;;;;5395624;26;20376;-77
2024/04/10 03:40:11;;;;;;;3.70;1.17;;;16.50;73.20;;;;;;5396053;26;20011;-78
2024/04/10 03:42:37;;;;;;;3.83;1.27;;;16.50;73.20;;;;;;5413042;26;20018;-77
2024/04/10 03:45:04;;;;;;;6.80;1.50;;;16.50;73.30;;;;;;5412837;26;20796;-78
2024/04/10 03:47:30;;;;;;;1.23;1.08;;;16.50;73.20;;;;;;5413583;26;20460;-78
2024/04/10 03:49:56;;;;;;;2.77;1.20;;;16.50;73.20;;;;;;5385304;26;20011;-77
2024/04/10 03:52:22;;;;;;;7.20;1.73;;;16.50;73.20;;;;;;5408120;26;20004;-78
2024/04/10 03:54:48;;;;;;;3.07;1.13;;;16.50;73.20;;;;;;5411039;26;20685;-78
2024/04/10 03:57:14;;;;;;;4.63;1.13;;;16.50;73.10;;;;;;5412583;26;20008;-78
2024/04/10 03:59:39;;;;;;;3.17;1.13;;;16.50;73.10;;;;;;5396923;26;20078;-77
2024/04/10 04:02:05;;;;;;;3.73;1.50;;;16.50;73.10;;;;;;5385245;26;20001;-78
2024/04/10 04:04:31;;;;;;;4.10;1.27;;;16.50;73.20;;;;;;5412530;26;20431;-77
2024/04/10 04:06:56;;;;;;;4.30;1.13;;;16.50;73.20;;;;;;5412582;26;20068;-77
2024/04/10 04:09:22;;;;;;;3.50;1.40;;;16.50;73.10;;;;;;5403266;26;20463;-78
2024/04/10 04:11:48;;;;;;;3.77;1.93;;;16.50;73.20;;;;;;5381167;26;20326;-78
2024/04/10 04:14:14;;;;;;;7.30;1.73;;;16.50;73.30;;;;;;5403164;26;20880;-77
2024/04/10 04:16:40;;;;;;;4.77;1.37;;;16.50;73.20;;;;;;5396726;26;20000;-78
2024/04/10 04:19:06;;;;;;;2.70;1.03;;;16.50;73.10;;;;;;5387427;26;20874;-78
2024/04/10 04:21:32;;;;;;;2.50;1.70;;;16.40;73.20;;;;;;5405099;26;20014;-77
2024/04/10 04:24:01;;;;;;;2.17;1.00;;;16.40;73.20;;;;;;5399935;26;20269;-77
2024/04/10 04:26:27;;;;;;;5.05;1.23;;;16.40;73.30;;;;;;5378918;26;20004;-78
2024/04/10 04:28:53;;;;;;;2.57;1.43;;;16.40;73.20;;;;;;5383144;26;20022;-77
2024/04/10 04:31:19;;;;;;;8.48;1.70;;;16.40;73.30;;;;;;5387279;26;20321;-77
2024/04/10 04:33:45;;;;;;;4.13;1.42;;;16.40;73.20;;;;;;5401967;26;20004;-78
2024/04/10 04:36:11;;;;;;;3.03;1.27;;;16.40;73.20;;;;;;5391385;26;20362;-77
2024/04/10 04:38:37;;;;;;;4.87;1.20;;;16.40;73.10;;;;;;5377282;26;20000;-77
2024/04/10 04:41:03;;;;;;;6.32;1.50;;;16.40;73.20;;;;;;5378637;26;20031;-78
2024/04/10 04:43:29;;;;;;;4.53;1.60;;;16.40;73.20;;;;;;5377818;26;20019;-78
2024/04/10 04:45:56;;;;;;;5.00;1.58;;;16.40;73.10;;;;;;5380008;26;20154;-77
2024/04/10 04:48:22;;;;;;;7.35;1.60;;;16.40;73.20;;;;;;5377830;26;20813;-78
2024/04/10 04:50:48;;;;;;;3.28;1.20;;;16.40;73.20;;;;;;5379212;26;20008;-77
2024/04/10 04:53:15;;;;;;;4.60;1.55;;;16.40;73.20;;;;;;5377695;26;20000;-78
2024/04/10 04:55:42;;;;;;;5.05;1.58;;;16.40;73.20;;;;;;5377454;26;20327;-77
2024/04/10 04:58:08;;;;;;;4.22;1.33;;;16.40;73.20;;;;;;5377719;26;20026;-78
2024/04/10 05:00:34;;;;;;;4.93;1.30;;;16.40;73.20;;;;;;5379411;26;20001;-78
2024/04/10 05:03:03;;;;;;;5.88;1.33;;;16.40;73.20;;;;;;5379469;26;20008;-78
2024/04/10 05:05:29;;;;;;;5.80;1.17;;;16.30;73.20;;;;;;5379329;26;20000;-78
2024/04/10 05:07:55;;;;;;;1.98;1.20;;;16.40;73.20;;;;;;5379022;26;20008;-78
2024/04/10 05:10:21;;;;;;;1.10;0.83;;;16.30;73.10;;;;;;5377338;26;20097;-78
2024/04/10 05:12:46;;;;;;;3.17;1.40;;;16.40;73.20;;;;;;5371860;26;20015;-78
2024/04/10 05:15:14;;;;;;;4.13;1.30;;;16.40;73.20;;;;;;5369039;26;20004;-78
2024/04/10 05:17:40;;;;;;;4.35;1.27;;;16.30;73.20;;;;;;5378323;26;20020;-78
2024/04/10 05:20:13;;;;;;;2.92;0.95;;;16.30;73.20;;;;;;5379848;26;20000;-77
2024/04/10 05:22:39;;;;;;;3.22;1.55;;;16.40;73.10;;;;;;5379293;26;19997;-78
2024/04/10 05:25:06;;;;;;;7.25;1.65;;;16.40;73.10;;;;;;5384599;26;20015;-77
2024/04/10 05:27:32;;;;;;;;;;;16.40;73.10;;;;;;5387496;26;20019;-78
2024/04/10 05:30:06;;;;;;;5.05;1.30;;;16.40;73.00;;;;;;5393416;26;20268;-77
2024/04/10 05:32:36;;;;;;;3.50;1.88;;;16.40;73.10;;;;;;5415416;26;19999;-77
2024/04/10 05:35:02;;;;;;;3.95;1.38;;;16.40;73.10;;;;;;5410587;26;20505;-77
2024/04/10 05:37:27;;;;;;;3.03;1.33;;;16.40;73.20;;;;;;5381962;26;20004;-78
2024/04/10 05:40:08;;;;;;;3.93;1.10;;;16.40;73.10;;;;;;5393957;26;20093;-78
2024/04/10 05:42:38;;;;;;;4.70;1.58;;;16.40;73.20;;;;;;5393352;26;19999;-77
2024/04/10 05:45:05;;;;;;;3.35;1.15;;;16.40;73.20;;;;;;5386227;26;20019;-77
2024/04/10 05:47:31;;;;;;;4.18;1.40;;;16.40;73.30;;;;;;5403373;26;20000;-77
2024/04/10 05:49:57;;;;;;;4.13;1.52;;;16.40;73.80;;;;;;5406373;26;20007;-77
2024/04/10 05:52:23;;;;;;;4.30;1.40;;;16.40;73.60;;;;;;5412810;26;20406;-78
2024/04/10 05:54:50;;;;;;;5.83;1.10;;;16.40;73.60;;;;;;5377989;26;19992;-77
2024/04/10 05:57:16;;;;;;;6.75;1.45;;;16.50;73.50;;;;;;5410077;26;20011;-77
2024/04/10 05:59:42;;;;;;;6.68;1.23;;;16.50;73.50;;;;;;5390876;26;20000;-78
2024/04/10 06:02:08;;;;;;;6.03;1.10;;;16.50;73.30;;;;;;5391773;26;20010;-77
2024/04/10 06:04:34;;;;;;;3.90;1.50;;;16.60;73.20;;;;;;5404913;26;20000;-78
2024/04/10 06:07:00;;;;;;;4.28;1.40;;;16.60;73.30;;;;;;5415020;26;20000;-78
2024/04/10 06:09:25;;;;;;;3.70;1.50;;;16.60;73.20;;;;;;5414463;26;20428;-77
2024/04/10 06:11:51;;;;;;;5.10;1.43;;;16.60;73.20;;;;;;5414861;26;20007;-78
2024/04/10 06:14:17;;;;;;;4.87;1.57;;;16.60;73.10;;;;;;5403883;26;20015;-78
2024/04/10 06:16:42;;;;;;;2.30;1.00;;;16.70;72.80;;;;;;5387192;26;20404;-78
2024/04/10 06:19:08;;;;;;;2.83;1.43;;;16.70;72.70;;;;;;5398966;26;20554;-78
2024/04/10 06:21:34;;;;;;;5.60;1.30;;;16.80;72.50;;;;;;5398250;26;20004;-78
2024/04/10 06:23:59;;;;;;;7.87;1.93;;;16.80;72.30;;;;;;5386475;26;19996;-78
2024/04/10 06:26:25;;;;;;;3.33;1.20;;;16.80;72.50;;;;;;5379170;26;20042;-78
2024/04/10 06:28:51;;;;;;;6.13;1.67;;;16.70;72.80;;;;;;5389800;26;20507;-77
2024/04/10 06:31:16;;;;;;;3.60;1.47;;;16.60;72.90;;;;;;5383220;26;20023;-78
2024/04/10 06:33:42;;;;;;;5.90;1.80;;;16.60;73.10;;;;;;5378878;26;20544;-78
2024/04/10 06:36:08;;;;;;;5.43;1.30;;;16.60;73.30;;;;;;5381172;26;20004;-78
2024/04/10 06:38:34;;;;;;;3.60;1.30;;;16.70;73.40;;;;;;5376918;26;20035;-77
2024/04/10 06:41:04;;;;;;;4.72;1.30;;;16.70;73.40;;;;;;5378901;26;20011;-77
2024/04/10 06:43:30;;;;;;;8.25;1.50;;;16.60;73.30;;;;;;5376367;26;20004;-76
2024/04/10 06:46:02;;;;;;;6.07;1.90;;;16.70;73.30;;;;;;5377089;26;20028;-78
2024/04/10 06:48:28;;;;;;;4.43;1.60;;;16.70;73.10;;;;;;5378009;26;20267;-77
2024/04/10 06:51:01;;;;;;;6.33;1.30;;;16.80;72.90;;;;;;5374749;26;20034;-77
2024/04/10 06:53:28;;;;;;;9.18;1.27;;;16.80;72.70;;;;;;5376255;26;20007;-77
2024/04/10 06:55:57;;;;;;;5.57;1.40;;;17.30;71.40;;;;;;5377981;26;20539;-76
2024/04/10 06:58:24;;;;;;;7.32;1.65;;;17.60;70.40;;;;;;5376404;26;20032;-78
2024/04/10 07:00:59;;;;;;;;;;;17.60;70.40;;;;;;5377038;26;20434;-77
2024/04/10 07:03:28;;;;;;;7.70;1.60;;;17.90;69.60;;;;;;5436050;26;20319;-76
2024/04/10 07:06:07;;;;;;;9.07;2.05;;;18.30;68.20;;;;;;5385044;26;20007;-78
2024/04/10 07:08:35;;;;;;;6.18;1.95;;;18.60;67.30;;;;;;5399506;26;20032;-80
2024/04/10 07:11:04;;;;;;;5.47;1.48;;;19.00;66.30;;;;;;5381025;26;20015;-78
2024/04/10 07:13:30;;;;;;;6.75;1.33;;;19.00;65.80;;;;;;5387423;26;20081;-78
2024/04/10 07:16:01;;;;;;;9.40;2.40;;;18.50;67.60;;;;;;5374631;26;20528;-77
2024/04/10 07:18:28;;;;;;;7.47;2.50;;;18.30;68.30;;;;;;5378503;26;20000;-77
2024/04/10 07:21:04;;;;;;;4.93;1.65;;;18.50;67.90;;;;;;5383838;26;20077;-76
2024/04/10 07:23:30;;;;;;;;;;;18.90;66.90;;;;;;5399507;26;20015;-77
2024/04/10 07:26:12;;;;;;;5.70;1.70;;;19.50;65.10;;;;;;5385316;26;19925;-76
2024/04/10 07:28:44;;;;;;;5.20;1.63;;;19.60;64.40;;;;;;5376741;26;20311;-78
2024/04/10 07:31:11;;;;;;;7.65;1.38;;;19.80;63.80;;;;;;5397544;26;19999;-77
2024/04/10 07:33:37;;;;;;;;;;;20.40;62.20;;;;;;5380463;26;20008;-75
2024/04/10 07:36:10;;;;;;;8.45;1.42;;;19.60;64.00;;;;;;5390239;26;19952;-76
2024/04/10 07:38:36;;;;;;;7.35;1.67;;;20.50;61.90;;;;;;5369089;26;20041;-75
2024/04/10 07:41:03;;;;;;;16.88;1.60;;;19.70;63.20;;;;;;5390009;26;20003;-78
2024/04/10 07:43:29;;;;;;;3.33;1.23;;;19.80;63.50;;;;;;5382867;26;20012;-76
2024/04/10 07:45:54;;;;;;;15.87;1.70;;;20.50;61.80;;;;;;5395658;26;20000;-76
2024/04/10 07:48:20;;;;;;;5.33;1.50;;;21.10;59.60;;;;;;5370168;26;20000;-77
2024/04/10 07:50:46;;;;;;;3.57;1.33;;;20.40;60.50;;;;;;5371877;26;20421;-77
2024/04/10 07:53:12;;;;;;;10.53;1.50;;;20.00;61.60;;;;;;5397839;26;20449;-76
2024/04/10 07:55:38;;;;;;;6.72;1.30;;;19.30;63.40;;;;;;5373947;26;20012;-77
2024/04/10 07:58:03;;;;;;;6.63;1.47;;;19.00;64.70;;;;;;5398406;26;20456;-76
2024/04/10 08:00:29;;;;;;;6.80;1.30;;;18.80;65.50;;;;;;5394109;26;20000;-76
2024/04/10 08:02:55;;;;;;;8.33;1.33;;;18.90;65.50;;;;;;5376437;26;20012;-75
2024/04/10 08:05:21;;;;;;;5.90;1.30;;;18.90;65.30;;;;;;5388385;26;20398;-76
2024/04/10 08:07:46;;;;;;;6.93;1.83;;;19.40;64.00;;;;;;5387307;26;20889;-77
2024/04/10 08:10:12;;;;;;;4.57;1.57;;;19.10;64.50;;;;;;5383725;26;20234;-76
2024/04/10 08:12:38;;;;;;;7.88;1.98;;;20.30;61.90;;;;;;5399518;26;20075;-79
2024/04/10 08:15:05;;;;;;;6.33;1.40;;;21.40;58.30;;;;;;5385115;26;20011;-76
2024/04/10 08:17:33;;;;;;;4.57;1.88;;;20.60;59.50;;;;;;5392763;26;20089;-77
2024/04/10 08:19:58;;;;;;;10.35;1.60;;;19.60;62.50;;;;;;5384619;26;20007;-76
2024/04/10 08:22:24;;;;;;;8.87;1.83;;;19.10;64.40;;;;;;5395439;26;20077;-75
2024/04/10 08:24:50;;;;;;;7.23;1.57;;;19.40;63.90;;;;;;5399385;26;19996;-77
2024/04/10 08:27:16;;;;;;;5.95;2.05;;;19.80;62.50;;;;;;5374605;26;20000;-75
2024/04/10 08:29:47;;;;;;;2.93;1.13;;;20.00;62.10;;;;;;5393444;26;20023;-75
2024/04/10 08:32:13;;;;;;;7.40;1.50;;;19.60;63.00;;;;;;5398054;26;20000;-76
2024/04/10 08:34:38;;;;;;;4.70;1.63;;;19.30;63.60;;;;;;5376161;26;20018;-77
2024/04/10 08:37:04;;;;;;;9.70;1.47;;;20.10;61.90;;;;;;5401050;26;20004;-77
2024/04/10 08:39:30;;;;;;;7.20;1.67;;;20.00;61.20;;;;;;5393112;26;20017;-76
2024/04/10 08:41:58;;;;;;;9.17;1.37;;;19.50;63.20;;;;;;5376970;26;20109;-76
2024/04/10 08:44:26;;;;;;;5.97;1.55;;;20.00;62.20;;;;;;5389964;26;20080;-77
2024/04/10 08:46:55;;;;;;;7.10;1.30;;;21.00;59.50;;;;;;5386365;26;20004;-76
2024/04/10 08:49:22;;;;;;;6.38;1.40;;;21.10;58.40;;;;;;5411417;26;20066;-76
2024/04/10 08:51:48;;;;;;;5.78;2.00;;;20.10;61.30;;;;;;5381779;26;20101;-77
2024/04/10 08:54:19;;;;;;;6.70;1.27;;;19.70;62.70;;;;;;5367581;26;20020;-77
2024/04/10 08:56:45;;;;;;;8.13;1.80;;;21.00;60.50;;;;;;5399213;26;19999;-77
2024/04/10 08:59:10;;;;;;;11.53;1.77;;;22.30;56.20;;;;;;5378244;26;20019;-80
2024/04/10 09:01:37;;;;;;;3.90;1.30;;;22.50;55.20;;;;;;5379323;26;20008;-82
2024/04/10 09:04:04;;;;;;;;;;;22.50;55.20;;;;;;5385146;26;20345;-83
2024/04/10 09:06:29;;;;;;;4.22;1.30;;;21.70;57.10;;;;;;5396542;26;19932;-80
2024/04/10 09:08:59;;;;;;;6.83;1.67;;;21.80;57.40;;;;;;5376750;26;20000;-77
2024/04/10 09:11:25;;;;;;;6.88;1.65;;;22.20;55.60;;;;;;5396318;26;19996;-77
2024/04/10 09:14:02;;;;;;;4.78;1.27;;;21.20;58.30;;;;;;5385380;26;20004;-78
2024/04/10 09:16:29;;;;;;;8.77;1.70;;;20.70;63.20;;;;;;5353308;26;20493;-74
2024/04/10 09:18:55;;;;;;;;;;;21.40;58.70;;;;;;5399832;26;20077;-75
2024/04/10 09:21:20;;;;;;;9.43;1.73;;;22.00;56.80;;;;;;5385344;26;19925;-74
2024/04/10 09:23:46;;;;;;;6.83;1.93;;;22.00;56.20;;;;;;5385178;26;20012;-76
2024/04/10 09:26:17;;;;;;;10.60;1.97;;;21.10;58.70;;;;;;5373012;26;20081;-74
2024/04/10 09:28:43;;;;;;;5.20;1.17;;;20.50;61.00;;;;;;5384443;26;20015;-72
2024/04/10 09:31:20;;;;;;;7.67;1.40;;;20.70;60.10;;;;;;5373435;26;20082;-77
2024/04/10 09:33:48;;;;;;;5.20;1.55;;;21.50;58.40;;;;;;5369839;26;20012;-75
2024/04/10 09:36:15;;;;;;;15.65;1.48;;;21.60;57.80;;;;;;5385684;26;20004;-77
2024/04/10 09:38:41;;;;;;;7.93;1.45;;;22.10;56.10;;;;;;5378805;26;20492;-75
2024/04/10 09:41:07;;;;;;;6.38;1.25;;;20.90;59.10;;;;;;5374066;26;20019;-75
2024/04/10 09:43:40;;;;;;;13.35;2.13;;;21.20;59.30;;;;;;5379679;26;20035;-75
2024/04/10 09:46:08;;;;;;;5.47;1.13;;;21.90;57.30;;;;;;5370909;26;20012;-74
2024/04/10 09:48:35;;;;;;;8.90;1.55;;;21.80;57.30;;;;;;5371916;26;20068;-74
2024/04/10 09:51:05;;;;;;;3.67;1.25;;;21.30;58.50;;;;;;5378122;26;20081;-74
2024/04/10 09:53:34;;;;;;;8.55;1.45;;;21.60;58.10;;;;;;5376204;26;20023;-74
2024/04/10 09:56:09;;;;;;;8.50;1.60;;;21.90;57.00;;;;;;5372483;26;20004;-75
2024/04/10 09:58:36;;;;;;;7.68;1.50;;;22.10;56.50;;;;;;5387106;26;20000;-74
2024/04/10 10:01:03;;;;;;;6.40;1.33;;;23.10;54.20;;;;;;5399401;26;20091;-74
2024/04/10 10:03:28;;;;;;;3.15;1.27;;;23.90;52.00;;;;;;5393262;26;20815;-75
2024/04/10 10:06:25;;;;;;;4.13;1.42;;;24.20;50.80;;;;;;5378828;26;20874;-77
2024/04/10 10:08:51;;;;;;;6.57;1.38;;;23.30;52.40;;;;;;5393389;26;19996;-74
2024/04/10 10:11:22;;;;;;;6.13;1.63;;;22.50;54.60;;;;;;5398303;26;20011;-75
2024/04/10 10:14:04;;;;;;;4.97;1.45;;;22.20;55.80;;;;;;5372593;26;20433;-75
2024/04/10 10:16:34;;;;;;;5.07;1.33;;;22.50;55.20;;;;;;5399306;26;20055;-74
2024/04/10 10:19:01;;;;;;;4.25;1.35;;;22.80;54.30;;;;;;5396052;26;20000;-75
2024/04/10 10:21:28;;;;;;;5.57;1.15;;;22.60;55.00;;;;;;5382993;26;20006;-75
2024/04/10 10:24:00;;;;;;;5.45;1.52;;;22.30;55.60;;;;;;5407568;26;20072;-75
2024/04/10 10:26:27;;;;;;;4.65;1.25;;;22.50;55.50;;;;;;5378209;26;20011;-74
2024/04/10 10:29:09;;;;;;;6.70;1.40;;;22.70;54.80;;;;;;5383720;26;20089;-74
2024/04/10 10:31:35;;;;;;;4.38;1.05;;;22.60;55.10;;;;;;5376809;26;20000;-76
2024/04/10 10:34:03;;;;;;;4.72;1.38;;;22.10;56.60;;;;;;5377244;26;20524;-74
2024/04/10 10:36:33;;;;;;;5.70;1.25;;;22.50;55.80;;;;;;5374828;26;20015;-77
2024/04/10 10:39:13;;;;;;;5.43;1.50;;;21.90;57.10;;;;;;5377781;26;19996;-74
2024/04/10 10:41:39;;;;;;;8.65;1.50;;;21.80;57.90;;;;;;5399183;26;19999;-73
2024/04/10 10:44:05;;;;;;;6.95;1.33;;;21.70;58.10;;;;;;5372473;26;20000;-75
2024/04/10 10:46:33;;;;;;;6.20;1.30;;;22.60;56.00;;;;;;5395861;26;20018;-76
2024/04/10 10:48:59;;;;;;;5.45;1.40;;;22.50;55.90;;;;;;5375511;26;20530;-74
2024/04/10 10:51:24;;;;;;;5.95;1.25;;;22.40;56.30;;;;;;5371748;26;19996;-74
2024/04/10 10:53:51;;;;;;;9.87;1.47;;;22.60;56.00;;;;;;5387626;26;20097;-74
2024/04/10 10:56:27;;;;;;;9.32;2.03;;;22.20;57.30;;;;;;5387947;26;20340;-75
2024/04/10 10:58:53;;;;;;;;;;;23.20;55.20;;;;;;5377713;26;20004;-73
2024/04/10 11:01:20;;;;;;;5.47;1.13;;;23.10;55.40;;;;;;5371436;26;19933;-73
2024/04/10 11:03:49;;;;;;;6.78;1.70;;;23.40;54.90;;;;;;5371030;26;20465;-74
2024/04/10 11:06:16;;;;;;;8.77;1.65;;;23.70;54.40;;;;;;5381332;26;19999;-76
2024/04/10 11:08:42;;;;;;;5.05;1.58;;;23.70;54.50;;;;;;5371815;26;20077;-76
2024/04/10 11:11:12;;;;;;;4.30;1.05;;;23.70;54.70;;;;;;5390899;26;20003;-76
2024/04/10 11:13:51;;;;;;;4.65;1.40;;;23.60;54.80;;;;;;5378025;26;20480;-76
2024/04/10 11:16:43;;;;;;;7.28;1.40;;;23.30;55.70;;;;;;5384263;26;20388;-74
2024/04/10 11:19:10;;;;;;;1.45;0.95;;;23.60;55.20;;;;;;5349273;26;20074;-75
2024/04/10 11:21:36;;;;;;;8.88;1.00;;;23.70;54.90;;;;;;5371831;26;20000;-74
2024/04/10 11:24:02;;;;;;;4.27;1.17;;;24.10;53.90;;;;;;5379685;26;20011;-73
2024/04/10 11:26:27;;;;;;;4.60;1.52;;;23.30;55.90;;;;;;5371739;26;19997;-73
2024/04/10 11:28:54;;;;;;;4.60;1.10;;;23.00;56.90;;;;;;5393525;26;20015;-75
2024/04/10 11:31:20;;;;;;;4.90;1.02;;;23.00;57.10;;;;;;5396447;26;20073;-73
2024/04/10 11:33:46;;;;;;;4.53;1.27;;;22.70;57.80;;;;;;5382740;26;20003;-72
2024/04/10 11:36:12;;;;;;;4.20;1.17;;;22.30;58.90;;;;;;5385882;26;20007;-71
2024/04/10 11:38:37;;;;;;;5.63;1.13;;;22.00;59.70;;;;;;5372608;26;20000;-71
2024/04/10 11:41:05;;;;;;;7.65;1.50;;;21.70;60.70;;;;;;5397670;26;20227;-70
2024/04/10 11:43:30;;;;;;;4.18;1.40;;;21.50;61.50;;;;;;5373032;26;20026;-71
2024/04/10 11:45:56;;;;;;;3.80;1.40;;;21.40;62.00;;;;;;5380243;26;20003;-71
2024/04/10 11:48:21;;;;;;;3.43;0.93;;;21.30;62.30;;;;;;5370624;26;20008;-70
2024/04/10 11:50:48;;;;;;;6.07;1.60;;;21.20;62.50;;;;;;5401881;26;20014;-71
2024/04/10 11:53:13;;;;;;;7.75;1.40;;;21.20;62.60;;;;;;5391239;26;19996;-71
2024/04/10 11:55:39;;;;;;;5.13;1.10;;;21.20;62.60;;;;;;5370026;26;20675;-71
2024/04/10 11:58:05;;;;;;;4.35;0.88;;;21.20;62.70;;;;;;5394780;26;20452;-72
2024/04/10 12:00:31;;;;;;;2.33;1.00;;;21.20;62.80;;;;;;5377142;26;20051;-72
2024/04/10 12:02:57;;;;;;;5.13;1.23;;;21.20;62.90;;;;;;5397452;26;20000;-71
2024/04/10 12:05:22;;;;;;;5.23;1.00;;;21.20;62.90;;;;;;5386921;26;20373;-71
2024/04/10 12:07:48;;;;;;;4.50;1.17;;;21.20;63.00;;;;;;5376354;26;20449;-71
2024/04/10 12:10:14;;;;;;;1.33;0.70;;;21.20;63.20;;;;;;5392991;26;20000;-72
2024/04/10 12:12:39;;;;;;;5.60;1.13;;;21.20;63.20;;;;;;5380641;26;20015;-73
2024/04/10 12:15:08;;;;;;;4.03;1.00;;;21.10;63.50;;;;;;5382778;26;20004;-70
2024/04/10 12:17:34;;;;;;;2.00;0.88;;;21.10;63.50;;;;;;5372535;26;20353;-71
2024/04/10 12:20:01;;;;;;;4.50;0.87;;;21.10;63.50;;;;;;5397578;26;20000;-73
2024/04/10 12:22:27;;;;;;;3.53;1.10;;;21.10;63.40;;;;;;5392314;26;20262;-71
2024/04/10 12:24:53;;;;;;;5.00;0.77;;;21.10;63.50;;;;;;5396548;26;20429;-70
2024/04/10 12:27:19;;;;;;;3.97;1.00;;;21.10;63.50;;;;;;5370278;26;20010;-70
2024/04/10 12:29:45;;;;;;;2.83;0.97;;;21.10;63.50;;;;;;5394871;26;20014;-73
2024/04/10 12:32:12;;;;;;;4.43;1.02;;;21.10;63.50;;;;;;5384162;26;20000;-73
2024/04/10 12:34:38;;;;;;;3.47;1.45;;;21.10;63.40;;;;;;5385030;26;20449;-73
2024/04/10 12:39:48;;;;;;;3.55;1.02;;;21.10;63.50;;;;;;5370446;26;20106;-71
2024/04/10 12:42:15;;;;;;;9.93;1.30;;;21.10;63.40;;;;;;5405025;26;19996;-71
2024/04/10 12:44:41;;;;;;;2.33;0.90;;;21.20;63.30;;;;;;5408380;26;20120;-71
2024/04/10 12:47:08;;;;;;;4.35;0.98;;;21.10;63.30;;;;;;5386823;26;20444;-71
2024/04/10 12:49:36;;;;;;;6.15;0.90;;;21.10;63.10;;;;;;5393119;26;20000;-71